createdAt,value
2022-08-11T00:00:01.652Z,18.07
2022-08-11T00:00:59.502Z,18.06
2022-08-11T00:01:54.539Z,18.04
2022-08-11T00:02:49.645Z,17.99
2022-08-11T00:03:44.709Z,17.93
2022-08-11T00:04:39.789Z,17.87
2022-08-11T00:05:34.820Z,17.81
2022-08-11T00:06:29.916Z,17.78
2022-08-11T00:07:24.959Z,17.79
2022-08-11T00:08:20.028Z,17.81
2022-08-11T00:09:15.110Z,17.77
2022-08-11T00:10:10.169Z,17.78
2022-08-11T00:11:05.289Z,17.79
2022-08-11T00:12:00.269Z,17.79
2022-08-11T00:12:55.347Z,17.76
2022-08-11T00:13:50.561Z,17.72
2022-08-11T00:14:46.297Z,17.68
2022-08-11T00:15:41.498Z,17.66
2022-08-11T00:16:37.369Z,17.63
2022-08-11T00:17:32.441Z,17.59
2022-08-11T00:18:27.625Z,17.56
2022-08-11T00:20:12.424Z,17.55
2022-08-11T00:20:19.675Z,17.54
2022-08-11T00:21:13.939Z,17.54
2022-08-11T00:22:08.976Z,17.55
2022-08-11T00:23:04.007Z,17.57
2022-08-11T00:23:59.138Z,17.58
2022-08-11T00:24:58.571Z,17.61
2022-08-11T00:25:50.785Z,17.60
2022-08-11T00:26:45.022Z,17.57
2022-08-11T00:27:40.778Z,17.55
2022-08-11T00:28:35.938Z,17.55
2022-08-11T00:29:31.463Z,17.58
2022-08-11T00:30:27.084Z,17.61
2022-08-11T00:31:22.306Z,17.59
2022-08-11T00:32:18.087Z,17.59
2022-08-11T00:33:13.245Z,17.60
2022-08-11T00:34:08.548Z,17.63
2022-08-11T00:35:50.819Z,17.69
2022-08-11T00:36:00.521Z,17.74
2022-08-11T00:36:54.768Z,17.76
2022-08-11T00:37:49.870Z,17.75
2022-08-11T00:38:44.793Z,17.75
2022-08-11T00:39:39.950Z,17.79
2022-08-11T00:40:34.881Z,17.76
2022-08-11T00:41:29.920Z,17.68
2022-08-11T00:42:25.041Z,17.61
2022-08-11T00:43:20.880Z,17.55
2022-08-11T00:44:20.420Z,17.47
2022-08-11T00:45:15.579Z,17.37
2022-08-11T00:46:10.906Z,17.30
2022-08-11T00:47:06.839Z,17.27
2022-08-11T00:48:02.049Z,17.34
2022-08-11T00:48:57.232Z,17.38
2022-08-11T00:49:52.382Z,17.38
2022-08-11T00:50:48.267Z,17.35
2022-08-11T00:52:04.480Z,17.33
2022-08-11T00:52:40.110Z,17.27
2022-08-11T00:53:34.352Z,17.20
2022-08-11T00:54:33.185Z,17.17
2022-08-11T00:55:25.486Z,17.12
2022-08-11T00:56:20.865Z,17.06
2022-08-11T00:57:37.022Z,17.03
2022-08-11T00:58:12.714Z,16.97
2022-08-11T00:59:26.347Z,16.95
2022-08-11T01:00:03.977Z,16.92
2022-08-11T01:00:58.652Z,16.90
2022-08-11T01:01:53.832Z,16.88
2022-08-11T01:02:49.692Z,16.83
2022-08-11T01:03:44.732Z,16.79
2022-08-11T01:04:39.933Z,16.75
2022-08-11T01:05:35.737Z,16.70
2022-08-11T01:06:30.920Z,16.67
2022-08-11T01:08:01.582Z,16.65
2022-08-11T01:08:22.283Z,16.68
2022-08-11T01:09:20.994Z,16.74
2022-08-11T01:10:12.765Z,16.76
2022-08-11T01:11:07.099Z,16.78
2022-08-11T01:12:03.355Z,16.79
2022-08-11T01:12:58.543Z,16.79
2022-08-11T01:13:53.822Z,16.82
2022-08-11T01:14:49.658Z,16.90
2022-08-11T01:15:57.259Z,17.04
2022-08-11T01:16:41.111Z,17.10
2022-08-11T01:19:00.206Z,16.74
2022-08-11T01:20:45.212Z,16.98
2022-08-11T01:20:51.449Z,17.08
2022-08-11T01:21:45.706Z,17.18
2022-08-11T01:22:40.852Z,17.26
2022-08-11T01:23:36.022Z,17.31
2022-08-11T01:24:31.212Z,17.34
2022-08-11T01:25:26.363Z,17.36
2022-08-11T01:26:21.651Z,17.34
2022-08-11T01:27:19.076Z,17.32
2022-08-11T01:28:11.900Z,17.28
2022-08-11T01:29:07.059Z,17.23
2022-08-11T01:30:02.220Z,17.22
2022-08-11T01:30:57.417Z,17.18
2022-08-11T01:31:52.626Z,17.14
2022-08-11T01:32:47.753Z,17.14
2022-08-11T01:33:43.025Z,17.13
2022-08-11T01:34:38.196Z,17.13
2022-08-11T01:35:33.339Z,17.10
2022-08-11T01:36:28.677Z,17.05
2022-08-11T01:37:23.710Z,17.02
2022-08-11T01:38:18.858Z,17.04
2022-08-11T01:39:14.087Z,17.08
2022-08-11T01:40:09.333Z,17.08
2022-08-11T01:41:04.531Z,17.07
2022-08-11T01:41:59.692Z,17.10
2022-08-11T01:42:54.818Z,17.08
2022-08-11T01:43:50.011Z,17.05
2022-08-11T01:44:45.146Z,17.00
2022-08-11T01:45:40.326Z,16.94
2022-08-11T01:46:35.683Z,16.94
2022-08-11T01:47:30.680Z,16.89
2022-08-11T01:48:26.087Z,16.89
2022-08-11T01:50:05.179Z,16.89
2022-08-11T01:50:17.304Z,16.87
2022-08-11T01:51:16.970Z,16.87
2022-08-11T01:52:07.746Z,16.88
2022-08-11T01:53:01.949Z,16.93
2022-08-11T01:53:57.371Z,16.95
2022-08-11T01:54:52.399Z,16.94
2022-08-11T01:55:47.614Z,16.93
2022-08-11T01:56:42.753Z,16.95
2022-08-11T01:57:38.056Z,16.95
2022-08-11T01:58:40.778Z,16.95
2022-08-11T01:59:29.285Z,16.93
2022-08-11T02:00:23.494Z,16.94
2022-08-11T02:01:18.859Z,16.96
2022-08-11T02:02:16.672Z,16.95
2022-08-11T02:03:10.244Z,16.93
2022-08-11T02:04:04.429Z,16.91
2022-08-11T02:04:59.832Z,16.88
2022-08-11T02:05:54.875Z,16.87
2022-08-11T02:06:50.061Z,16.87
2022-08-11T02:07:45.225Z,16.83
2022-08-11T02:08:41.963Z,16.79
2022-08-11T02:09:36.538Z,16.76
2022-08-11T02:10:35.509Z,16.75
2022-08-11T02:11:26.928Z,16.71
2022-08-11T02:12:21.090Z,16.71
2022-08-11T02:13:16.201Z,16.72
2022-08-11T02:14:11.563Z,16.76
2022-08-11T02:15:06.708Z,16.78
2022-08-11T02:16:01.869Z,16.82
2022-08-11T02:16:57.179Z,16.88
2022-08-11T02:17:54.835Z,16.91
2022-08-11T02:18:47.359Z,16.95
2022-08-11T02:19:42.599Z,16.95
2022-08-11T02:20:37.800Z,16.89
2022-08-11T02:21:33.107Z,16.83
2022-08-11T02:22:28.206Z,16.78
2022-08-11T02:24:05.742Z,16.70
2022-08-11T02:24:19.538Z,16.66
2022-08-11T02:25:13.743Z,16.62
2022-08-11T02:26:08.962Z,16.57
2022-08-11T02:27:04.181Z,16.55
2022-08-11T02:27:59.327Z,16.54
2022-08-11T02:28:54.621Z,16.53
2022-08-11T02:29:49.653Z,16.50
2022-08-11T02:30:44.944Z,16.50
2022-08-11T02:32:15.671Z,16.53
2022-08-11T02:32:36.545Z,16.55
2022-08-11T02:33:30.490Z,16.56
2022-08-11T02:34:25.641Z,16.59
2022-08-11T02:35:20.805Z,16.61
2022-08-11T02:36:16.002Z,16.64
2022-08-11T02:37:11.232Z,16.70
2022-08-11T02:38:06.534Z,16.73
2022-08-11T02:39:01.561Z,16.75
2022-08-11T02:39:56.697Z,16.76
2022-08-11T02:40:51.880Z,16.76
2022-08-11T02:41:47.060Z,16.76
2022-08-11T02:42:42.355Z,16.79
2022-08-11T02:43:37.431Z,16.80
2022-08-11T02:44:32.576Z,16.80
2022-08-11T02:45:28.017Z,16.82
2022-08-11T02:46:23.051Z,16.80
2022-08-11T02:47:18.187Z,16.75
2022-08-11T02:48:13.359Z,16.73
2022-08-11T02:49:08.546Z,16.77
2022-08-11T02:50:07.416Z,16.81
2022-08-11T02:50:58.960Z,16.80
2022-08-11T02:51:54.089Z,16.80
2022-08-11T02:52:49.253Z,16.81
2022-08-11T02:53:44.419Z,16.83
2022-08-11T02:54:40.575Z,16.78
2022-08-11T02:55:56.325Z,16.81
2022-08-11T02:56:31.005Z,16.84
2022-08-11T02:57:25.220Z,16.91
2022-08-11T02:58:22.107Z,16.97
2022-08-11T02:59:16.565Z,16.98
2022-08-11T03:00:10.799Z,17.03
2022-08-11T03:01:05.962Z,17.11
2022-08-11T03:02:05.299Z,17.20
2022-08-11T03:02:56.366Z,17.26
2022-08-11T03:03:51.514Z,17.32
2022-08-11T03:04:46.668Z,17.38
2022-08-11T03:05:41.981Z,17.42
2022-08-11T03:06:37.124Z,17.50
2022-08-11T03:07:32.290Z,17.54
2022-08-11T03:08:27.572Z,17.55
2022-08-11T03:09:22.736Z,17.57
2022-08-11T03:10:17.911Z,17.56
2022-08-11T03:11:13.088Z,17.56
2022-08-11T03:12:08.355Z,17.55
2022-08-11T03:13:03.415Z,17.50
2022-08-11T03:13:58.589Z,17.47
2022-08-11T03:14:53.830Z,17.49
2022-08-11T03:15:48.982Z,17.52
2022-08-11T03:16:44.248Z,17.51
2022-08-11T03:17:39.409Z,17.52
2022-08-11T03:18:34.556Z,17.52
2022-08-11T03:19:29.696Z,17.51
2022-08-11T03:20:24.945Z,17.52
2022-08-11T03:21:21.182Z,17.49
2022-08-11T03:22:15.409Z,17.50
2022-08-11T03:23:20.232Z,17.52
2022-08-11T03:24:06.849Z,17.53
2022-08-11T03:25:01.092Z,17.51
2022-08-11T03:25:56.274Z,17.50
2022-08-11T03:26:51.567Z,17.46
2022-08-11T03:27:46.624Z,17.43
2022-08-11T03:28:41.755Z,17.35
2022-08-11T03:29:36.943Z,17.31
2022-08-11T03:30:32.184Z,17.32
2022-08-11T03:31:27.515Z,17.29
2022-08-11T03:32:22.665Z,17.28
2022-08-11T03:33:17.826Z,17.27
2022-08-11T03:34:13.108Z,17.23
2022-08-11T03:35:08.142Z,17.22
2022-08-11T03:36:03.350Z,17.21
2022-08-11T03:37:17.913Z,17.22
2022-08-11T03:37:54.724Z,17.19
2022-08-11T03:38:48.951Z,17.18
2022-08-11T03:39:56.043Z,17.20
2022-08-11T03:40:40.289Z,17.21
2022-08-11T03:42:03.543Z,17.19
2022-08-11T03:42:30.705Z,17.15
2022-08-11T03:43:25.184Z,17.15
2022-08-11T03:44:20.117Z,17.16
2022-08-11T03:45:15.282Z,17.11
2022-08-11T03:46:10.459Z,17.08
2022-08-11T03:47:05.690Z,17.07
2022-08-11T03:48:01.012Z,17.05
2022-08-11T03:48:56.221Z,17.01
2022-08-11T03:49:51.429Z,16.98
2022-08-11T03:50:46.677Z,16.93
2022-08-11T03:51:51.922Z,16.86
2022-08-11T03:52:38.176Z,16.77
2022-08-11T03:53:32.321Z,16.73
2022-08-11T03:54:27.500Z,16.73
2022-08-11T03:55:22.722Z,16.76
2022-08-11T03:56:17.982Z,16.79
2022-08-11T03:57:13.188Z,16.81
2022-08-11T03:58:08.529Z,16.78
2022-08-11T03:59:03.619Z,16.82
2022-08-11T03:59:58.838Z,16.86
2022-08-11T04:00:54.121Z,16.87
2022-08-11T04:01:49.366Z,16.87
2022-08-11T04:02:44.614Z,16.84
2022-08-11T04:03:39.905Z,16.83
2022-08-11T04:04:35.172Z,16.80
2022-08-11T04:05:30.514Z,16.79
2022-08-11T04:06:25.794Z,16.79
2022-08-11T04:07:21.064Z,16.78
2022-08-11T04:08:16.491Z,16.78
2022-08-11T04:09:11.669Z,16.76
2022-08-11T04:10:06.967Z,16.74
2022-08-11T04:11:02.365Z,16.74
2022-08-11T04:11:57.740Z,16.72
2022-08-11T04:12:53.285Z,16.68
2022-08-11T04:13:48.371Z,16.66
2022-08-11T04:14:43.698Z,16.63
2022-08-11T04:15:39.031Z,16.62
2022-08-11T04:16:34.404Z,16.63
2022-08-11T04:17:29.739Z,16.62
2022-08-11T04:18:25.210Z,16.62
2022-08-11T04:19:20.444Z,16.59
2022-08-11T04:20:15.789Z,16.61
2022-08-11T04:21:11.170Z,16.64
2022-08-11T04:22:06.521Z,16.65
2022-08-11T04:23:01.838Z,16.66
2022-08-11T04:24:37.228Z,16.68
2022-08-11T04:24:53.550Z,16.67
2022-08-11T04:25:57.786Z,16.69
2022-08-11T04:26:44.313Z,16.72
2022-08-11T04:27:39.295Z,16.75
2022-08-11T04:28:34.037Z,16.77
2022-08-11T04:29:35.944Z,16.78
2022-08-11T04:30:26.744Z,16.79
2022-08-11T04:31:50.660Z,16.80
2022-08-11T04:32:16.643Z,16.79
2022-08-11T04:33:10.916Z,16.77
2022-08-11T04:34:06.298Z,16.79
2022-08-11T04:35:01.660Z,16.81
2022-08-11T04:35:57.060Z,16.82
2022-08-11T04:36:52.415Z,16.86
2022-08-11T04:37:53.334Z,16.89
2022-08-11T04:38:44.132Z,16.88
2022-08-11T04:39:38.566Z,16.87
2022-08-11T04:40:33.925Z,16.91
2022-08-11T04:41:29.252Z,16.97
2022-08-11T04:42:28.335Z,17.03
2022-08-11T04:43:21.071Z,17.07
2022-08-11T04:44:15.373Z,17.11
2022-08-11T04:45:10.804Z,17.13
2022-08-11T04:46:06.182Z,17.13
2022-08-11T04:47:01.645Z,17.16
2022-08-11T04:48:03.329Z,17.22
2022-08-11T04:48:53.558Z,17.22
2022-08-11T04:49:47.871Z,17.27
2022-08-11T04:50:43.282Z,17.22
2022-08-11T04:51:39.727Z,17.15
2022-08-11T04:52:35.936Z,17.11
2022-08-11T04:53:29.600Z,17.12
2022-08-11T04:54:28.526Z,17.18
2022-08-11T04:55:20.397Z,17.22
2022-08-11T04:56:15.895Z,17.25
2022-08-11T04:57:11.199Z,17.26
2022-08-11T04:58:06.600Z,17.27
2022-08-11T04:59:02.001Z,17.29
2022-08-11T04:59:57.387Z,17.29
2022-08-11T05:00:52.751Z,17.23
2022-08-11T05:01:48.257Z,17.22
2022-08-11T05:02:43.573Z,17.26
2022-08-11T05:03:39.087Z,17.30
2022-08-11T05:04:34.520Z,17.33
2022-08-11T05:05:29.735Z,17.35
2022-08-11T05:06:25.150Z,17.38
2022-08-11T05:07:20.578Z,17.37
2022-08-11T05:08:17.719Z,17.36
2022-08-11T05:09:11.414Z,17.34
2022-08-11T05:10:06.833Z,17.38
2022-08-11T05:11:02.203Z,17.35
2022-08-11T05:11:59.472Z,17.33
2022-08-11T05:12:53.116Z,17.34
2022-08-11T05:13:48.496Z,17.39
2022-08-11T05:14:44.046Z,17.43
2022-08-11T05:15:42.494Z,17.45
2022-08-11T05:16:34.670Z,17.46
2022-08-11T05:17:30.082Z,17.48
2022-08-11T05:18:25.453Z,17.54
2022-08-11T05:19:20.884Z,17.62
2022-08-11T05:20:16.270Z,17.69
2022-08-11T05:21:11.819Z,17.74
2022-08-11T05:22:07.164Z,17.77
2022-08-11T05:23:02.545Z,17.76
2022-08-11T05:23:57.981Z,17.83
2022-08-11T05:24:53.460Z,17.88
2022-08-11T05:26:45.430Z,17.92
2022-08-11T05:26:49.269Z,17.94
2022-08-11T05:27:39.707Z,17.94
2022-08-11T05:28:35.511Z,17.92
2022-08-11T05:29:30.678Z,17.86
2022-08-11T05:30:26.128Z,17.87
2022-08-11T05:31:21.589Z,17.88
2022-08-11T05:32:17.186Z,17.90
2022-08-11T05:33:12.626Z,17.86
2022-08-11T05:34:08.077Z,17.79
2022-08-11T05:35:03.507Z,17.79
2022-08-11T05:36:01.876Z,17.82
2022-08-11T05:36:59.179Z,17.88
2022-08-11T05:37:50.785Z,17.94
2022-08-11T05:38:45.138Z,17.93
2022-08-11T05:39:40.566Z,17.96
2022-08-11T05:40:35.995Z,17.91
2022-08-11T05:41:31.615Z,17.91
2022-08-11T05:42:30.068Z,17.94
2022-08-11T05:43:22.531Z,17.94
2022-08-11T05:44:20.511Z,17.97
2022-08-11T05:45:15.692Z,17.95
2022-08-11T05:46:13.113Z,17.94
2022-08-11T05:47:04.489Z,17.96
2022-08-11T05:47:59.864Z,18.04
2022-08-11T05:48:55.343Z,18.10
2022-08-11T05:49:50.923Z,18.11
2022-08-11T05:50:46.400Z,18.13
2022-08-11T05:51:51.945Z,18.12
2022-08-11T05:52:41.621Z,18.11
2022-08-11T05:53:45.905Z,18.09
2022-08-11T05:54:29.706Z,18.09
2022-08-11T05:55:23.451Z,18.11
2022-08-11T05:56:18.849Z,18.14
2022-08-11T05:57:48.687Z,18.18
2022-08-11T05:58:10.880Z,18.20
2022-08-11T05:59:05.363Z,18.24
2022-08-11T06:00:00.829Z,18.30
2022-08-11T06:00:56.157Z,18.39
2022-08-11T06:01:51.640Z,18.43
2022-08-11T06:02:47.058Z,18.43
2022-08-11T06:03:42.522Z,18.34
2022-08-11T06:04:38.946Z,18.31
2022-08-11T06:05:37.327Z,18.35
2022-08-11T06:06:29.900Z,18.38
2022-08-11T06:07:24.422Z,18.43
2022-08-11T06:08:19.886Z,18.51
2022-08-11T06:09:15.338Z,18.54
2022-08-11T06:10:10.767Z,18.55
2022-08-11T06:11:06.349Z,18.53
2022-08-11T06:12:01.779Z,18.50
2022-08-11T06:12:57.273Z,18.51
2022-08-11T06:13:52.880Z,18.58
2022-08-11T06:14:48.166Z,18.59
2022-08-11T06:15:43.752Z,18.58
2022-08-11T06:16:39.200Z,18.63
2022-08-11T06:17:38.657Z,18.74
2022-08-11T06:18:30.113Z,18.82
2022-08-11T06:19:25.695Z,18.90
2022-08-11T06:20:21.132Z,18.86
2022-08-11T06:21:16.598Z,18.93
2022-08-11T06:22:12.028Z,19.02
2022-08-11T06:23:07.553Z,19.09
2022-08-11T06:24:02.902Z,19.17
2022-08-11T06:24:58.456Z,19.22
2022-08-11T06:25:56.538Z,19.22
2022-08-11T06:27:11.400Z,19.23
2022-08-11T06:27:45.683Z,19.27
2022-08-11T06:28:40.082Z,19.28
2022-08-11T06:29:38.127Z,19.33
2022-08-11T06:30:32.139Z,19.35
2022-08-11T06:31:26.651Z,19.41
2022-08-11T06:32:22.116Z,19.52
2022-08-11T06:33:17.579Z,19.59
2022-08-11T06:34:27.501Z,19.60
2022-08-11T06:35:09.457Z,19.56
2022-08-11T06:36:03.898Z,19.62
2022-08-11T06:36:59.450Z,19.66
2022-08-11T06:37:58.776Z,19.72
2022-08-11T06:38:50.428Z,19.74
2022-08-11T06:39:45.917Z,19.76
2022-08-11T06:40:41.466Z,19.81
2022-08-11T06:41:36.820Z,19.90
2022-08-11T06:42:32.396Z,19.83
2022-08-11T06:43:27.765Z,19.80
2022-08-11T06:44:23.234Z,19.78
2022-08-11T06:45:18.642Z,19.90
2022-08-11T06:46:14.252Z,19.94
2022-08-11T06:47:10.604Z,19.92
2022-08-11T06:48:04.956Z,19.97
2022-08-11T06:49:00.387Z,20.04
2022-08-11T06:49:55.983Z,20.11
2022-08-11T06:50:51.326Z,20.15
2022-08-11T06:51:47.035Z,20.06
2022-08-11T06:52:42.417Z,20.16
2022-08-11T06:53:37.849Z,20.20
2022-08-11T06:54:33.135Z,20.21
2022-08-11T06:55:57.616Z,20.31
2022-08-11T06:56:25.496Z,20.43
2022-08-11T06:57:29.873Z,20.48
2022-08-11T06:58:16.006Z,20.52
2022-08-11T06:59:10.485Z,20.53
2022-08-11T07:00:05.994Z,20.66
2022-08-11T07:01:01.401Z,20.70
2022-08-11T07:01:56.965Z,20.67
2022-08-11T07:02:52.286Z,20.73
2022-08-11T07:03:47.733Z,20.84
2022-08-11T07:04:43.197Z,21.02
2022-08-11T07:05:38.633Z,21.13
2022-08-11T07:06:41.556Z,21.24
2022-08-11T07:07:30.620Z,21.35
2022-08-11T07:08:34.089Z,21.44
2022-08-11T07:09:21.551Z,21.48
2022-08-11T07:10:16.042Z,21.45
2022-08-11T07:11:11.501Z,21.47
2022-08-11T07:12:06.979Z,21.56
2022-08-11T07:13:02.296Z,21.58
2022-08-11T07:13:57.757Z,21.67
2022-08-11T07:14:53.319Z,21.81
2022-08-11T07:16:12.445Z,21.87
2022-08-11T07:16:45.297Z,21.83
2022-08-11T07:17:39.697Z,21.81
2022-08-11T07:18:35.377Z,21.83
2022-08-11T07:19:30.666Z,21.77
2022-08-11T07:20:26.117Z,21.64
2022-08-11T07:22:01.632Z,21.42
2022-08-11T07:22:18.005Z,21.38
2022-08-11T07:23:12.394Z,21.50
2022-08-11T07:24:07.845Z,21.67
2022-08-11T07:25:03.802Z,21.67
2022-08-11T07:25:58.999Z,21.73
2022-08-11T07:26:54.493Z,21.84
2022-08-11T07:27:50.021Z,21.87
2022-08-11T07:28:45.429Z,21.86
2022-08-11T07:29:40.828Z,21.94
2022-08-11T07:30:36.380Z,21.94
2022-08-11T07:31:31.803Z,22.04
2022-08-11T07:32:27.397Z,22.01
2022-08-11T07:34:08.409Z,22.03
2022-08-11T07:34:19.415Z,22.12
2022-08-11T07:35:14.012Z,22.25
2022-08-11T07:36:09.702Z,22.33
2022-08-11T07:37:05.253Z,22.48
2022-08-11T07:38:02.075Z,22.52
2022-08-11T07:38:56.192Z,22.58
2022-08-11T07:39:51.684Z,22.67
2022-08-11T07:40:46.950Z,22.73
2022-08-11T07:41:42.535Z,22.82
2022-08-11T07:42:38.053Z,22.64
2022-08-11T07:43:33.605Z,22.34
2022-08-11T07:44:34.408Z,22.35
2022-08-11T07:45:25.694Z,22.48
2022-08-11T07:46:19.915Z,22.58
2022-08-11T07:47:15.498Z,22.76
2022-08-11T07:48:11.027Z,22.76
2022-08-11T07:49:06.541Z,22.54
2022-08-11T07:50:01.991Z,22.59
2022-08-11T07:50:57.518Z,22.66
2022-08-11T07:51:53.095Z,22.71
2022-08-11T07:52:48.643Z,22.85
2022-08-11T07:54:03.095Z,22.79
2022-08-11T07:54:40.637Z,22.69
2022-08-11T07:55:50.312Z,22.80
2022-08-11T07:56:54.309Z,23.04
2022-08-11T07:57:57.701Z,23.21
2022-08-11T07:58:22.768Z,23.13
2022-08-11T07:59:17.089Z,22.92
2022-08-11T08:00:12.680Z,22.94
2022-08-11T08:01:10.727Z,23.18
2022-08-11T08:02:04.638Z,23.42
2022-08-11T08:02:59.059Z,23.59
2022-08-11T08:03:54.942Z,23.71
2022-08-11T08:04:50.289Z,23.74
2022-08-11T08:05:45.601Z,23.92
2022-08-11T08:06:41.115Z,24.03
2022-08-11T08:07:36.728Z,24.07
2022-08-11T08:08:32.017Z,24.12
2022-08-11T08:09:27.469Z,24.02
2022-08-11T08:10:23.138Z,23.89
2022-08-11T08:11:21.375Z,23.83
2022-08-11T08:12:15.273Z,23.72
2022-08-11T08:13:09.754Z,23.31
2022-08-11T08:14:05.432Z,23.28
2022-08-11T08:15:01.449Z,23.27
2022-08-11T08:15:56.511Z,23.03
2022-08-11T08:16:52.334Z,22.84
2022-08-11T08:18:20.826Z,22.92
2022-08-11T08:18:44.335Z,23.20
2022-08-11T08:19:38.684Z,23.46
2022-08-11T08:20:34.231Z,23.75
2022-08-11T08:21:29.662Z,23.97
2022-08-11T08:22:37.850Z,24.06
2022-08-11T08:23:21.651Z,23.98
2022-08-11T08:24:16.024Z,24.03
2022-08-11T08:25:11.458Z,24.17
2022-08-11T08:26:16.745Z,24.35
2022-08-11T08:27:03.425Z,24.34
2022-08-11T08:27:57.800Z,24.40
2022-08-11T08:28:53.116Z,24.51
2022-08-11T08:29:48.695Z,24.33
2022-08-11T08:30:44.373Z,23.98
2022-08-11T08:31:39.829Z,24.00
2022-08-11T08:32:35.381Z,24.30
2022-08-11T08:33:31.006Z,24.65
2022-08-11T08:34:26.301Z,24.97
2022-08-11T08:35:21.801Z,25.13
2022-08-11T08:36:17.219Z,25.25
2022-08-11T08:37:16.284Z,25.31
2022-08-11T08:38:09.125Z,25.28
2022-08-11T08:39:03.663Z,24.97
2022-08-11T08:39:59.217Z,24.58
2022-08-11T08:40:56.188Z,24.43
2022-08-11T08:41:50.258Z,24.52
2022-08-11T08:42:45.972Z,24.57
2022-08-11T08:43:49.068Z,24.75
2022-08-11T08:44:40.536Z,24.88
2022-08-11T08:45:32.025Z,25.08
2022-08-11T08:46:28.587Z,25.38
2022-08-11T08:47:43.116Z,25.59
2022-08-11T08:48:19.606Z,25.58
2022-08-11T08:49:13.788Z,25.53
2022-08-11T08:50:09.338Z,25.62
2022-08-11T08:51:07.978Z,25.53
2022-08-11T08:52:31.914Z,25.34
2022-08-11T08:52:56.765Z,25.20
2022-08-11T08:53:52.633Z,25.18
2022-08-11T08:54:47.695Z,25.39
2022-08-11T08:55:45.470Z,25.60
2022-08-11T08:56:37.645Z,25.59
2022-08-11T08:57:39.804Z,25.75
2022-08-11T08:58:29.551Z,25.83
2022-08-11T08:59:23.900Z,25.95
2022-08-11T09:00:23.010Z,26.14
2022-08-11T09:01:15.151Z,26.03
2022-08-11T09:02:10.428Z,25.49
2022-08-11T09:03:36.022Z,25.35
2022-08-11T09:04:10.564Z,25.50
2022-08-11T09:04:57.795Z,25.69
2022-08-11T09:05:52.184Z,25.59
2022-08-11T09:06:51.616Z,25.54
2022-08-11T09:07:43.304Z,25.47
2022-08-11T09:08:38.518Z,25.65
2022-08-11T09:09:33.964Z,25.88
2022-08-11T09:10:29.374Z,25.91
2022-08-11T09:11:24.727Z,26.03
2022-08-11T09:12:36.343Z,26.24
2022-08-11T09:13:16.673Z,26.40
2022-08-11T09:14:14.863Z,26.38
2022-08-11T09:15:06.531Z,26.29
2022-08-11T09:16:02.040Z,26.40
2022-08-11T09:16:57.620Z,26.48
2022-08-11T09:17:52.965Z,26.34
2022-08-11T09:18:48.321Z,26.37
2022-08-11T09:19:43.868Z,26.59
2022-08-11T09:20:40.115Z,26.73
2022-08-11T09:21:46.244Z,26.93
2022-08-11T09:22:31.161Z,26.99
2022-08-11T09:24:26.081Z,26.74
2022-08-11T09:25:16.149Z,26.79
2022-08-11T09:26:11.613Z,26.68
2022-08-11T09:27:07.125Z,26.41
2022-08-11T09:28:02.497Z,26.35
2022-08-11T09:28:57.963Z,26.43
2022-08-11T09:29:53.452Z,26.61
2022-08-11T09:30:48.671Z,26.92
2022-08-11T09:31:44.191Z,27.22
2022-08-11T09:32:39.537Z,27.37
2022-08-11T09:33:35.021Z,27.40
2022-08-11T09:34:30.499Z,27.53
2022-08-11T09:35:25.929Z,27.49
2022-08-11T09:36:21.258Z,27.38
2022-08-11T09:37:28.488Z,27.21
2022-08-11T09:38:13.219Z,27.14
2022-08-11T09:39:07.628Z,26.87
2022-08-11T09:40:03.382Z,26.76
2022-08-11T09:40:58.620Z,26.66
2022-08-11T09:42:00.582Z,26.81
2022-08-11T09:42:50.583Z,27.08
2022-08-11T09:43:44.918Z,27.18
2022-08-11T09:44:40.527Z,27.13
2022-08-11T09:45:40.109Z,26.96
2022-08-11T09:46:31.228Z,27.11
2022-08-11T09:47:26.714Z,27.10
2022-08-11T09:48:22.200Z,26.98
2022-08-11T09:49:17.759Z,26.64
2022-08-11T09:50:13.185Z,26.73
2022-08-11T09:51:08.639Z,26.86
2022-08-11T09:52:05.352Z,27.19
2022-08-11T09:53:35.942Z,27.54
2022-08-11T09:54:03.811Z,27.42
2022-08-11T09:54:51.316Z,27.44
2022-08-11T09:55:45.831Z,27.58
2022-08-11T09:56:41.199Z,27.57
2022-08-11T09:57:37.011Z,27.65
2022-08-11T09:58:41.575Z,27.53
2022-08-11T09:59:28.686Z,27.35
2022-08-11T10:00:22.960Z,27.22
2022-08-11T10:01:18.420Z,27.04
2022-08-11T10:02:13.806Z,26.75
2022-08-11T10:03:09.514Z,26.61
2022-08-11T10:04:04.858Z,26.88
2022-08-11T10:05:00.227Z,27.06
2022-08-11T10:05:55.664Z,27.26
2022-08-11T10:06:54.009Z,27.25
2022-08-11T10:07:46.594Z,27.46
2022-08-11T10:08:42.045Z,27.29
2022-08-11T10:09:37.486Z,27.18
2022-08-11T10:10:33.012Z,27.16
2022-08-11T10:11:28.212Z,26.98
2022-08-11T10:12:23.713Z,27.11
2022-08-11T10:14:10.038Z,27.34
2022-08-11T10:14:33.429Z,27.47
2022-08-11T10:15:11.094Z,27.67
2022-08-11T10:16:15.279Z,27.76
2022-08-11T10:17:01.931Z,27.96
2022-08-11T10:17:56.333Z,28.09
2022-08-11T10:18:51.889Z,28.25
2022-08-11T10:20:04.508Z,28.05
2022-08-11T10:20:43.621Z,27.80
2022-08-11T10:21:38.003Z,27.70
2022-08-11T10:22:33.367Z,27.71
2022-08-11T10:23:28.850Z,27.54
2022-08-11T10:24:24.334Z,27.47
2022-08-11T10:25:20.193Z,27.44
2022-08-11T10:26:15.394Z,27.33
2022-08-11T10:27:10.866Z,27.48
2022-08-11T10:28:17.487Z,27.65
2022-08-11T10:29:13.167Z,27.75
2022-08-11T10:29:57.987Z,27.86
2022-08-11T10:30:52.466Z,28.00
2022-08-11T10:31:57.874Z,28.16
2022-08-11T10:32:57.719Z,28.15
2022-08-11T10:33:42.942Z,27.64
2022-08-11T10:34:35.287Z,27.67
2022-08-11T10:35:29.793Z,27.88
2022-08-11T10:36:25.158Z,28.01
2022-08-11T10:37:20.591Z,28.22
2022-08-11T10:38:16.170Z,28.40
2022-08-11T10:39:11.529Z,28.63
2022-08-11T10:40:06.864Z,28.51
2022-08-11T10:41:02.530Z,28.13
2022-08-11T10:42:06.929Z,27.79
2022-08-11T10:42:58.086Z,27.38
2022-08-11T10:44:03.395Z,27.36
2022-08-11T10:44:45.195Z,27.69
2022-08-11T10:45:39.592Z,28.05
2022-08-11T10:46:35.051Z,28.49
2022-08-11T10:47:30.487Z,28.73
2022-08-11T10:48:26.103Z,28.44
2022-08-11T10:49:21.558Z,28.26
2022-08-11T10:50:17.096Z,28.11
2022-08-11T10:51:12.464Z,27.97
2022-08-11T10:52:07.757Z,27.96
2022-08-11T10:53:03.232Z,28.10
2022-08-11T10:53:58.712Z,28.39
2022-08-11T10:54:54.344Z,28.54
2022-08-11T10:55:49.563Z,28.66
2022-08-11T10:56:45.041Z,28.75
2022-08-11T10:57:40.663Z,29.03
2022-08-11T10:58:35.970Z,29.01
2022-08-11T10:59:31.585Z,28.90
2022-08-11T11:00:26.933Z,29.03
2022-08-11T11:01:22.288Z,29.16
2022-08-11T11:02:17.731Z,29.18
2022-08-11T11:03:22.856Z,29.09
2022-08-11T11:04:09.686Z,28.93
2022-08-11T11:05:04.217Z,29.11
2022-08-11T11:06:27.277Z,28.78
2022-08-11T11:06:56.060Z,28.33
2022-08-11T11:07:50.339Z,28.31
2022-08-11T11:08:45.800Z,28.52
2022-08-11T11:09:41.257Z,28.76
2022-08-11T11:10:36.627Z,29.02
2022-08-11T11:11:32.104Z,29.18
2022-08-11T11:12:27.573Z,29.35
2022-08-11T11:13:22.942Z,29.63
2022-08-11T11:14:18.438Z,29.92
2022-08-11T11:15:17.661Z,30.09
2022-08-11T11:16:09.253Z,30.09
2022-08-11T11:17:04.751Z,30.08
2022-08-11T11:18:00.208Z,30.11
2022-08-11T11:19:01.171Z,30.13
2022-08-11T11:19:52.096Z,30.13
2022-08-11T11:20:47.681Z,30.03
2022-08-11T11:21:42.361Z,29.64
2022-08-11T11:22:37.464Z,29.19
2022-08-11T11:23:32.830Z,28.88
2022-08-11T11:24:28.594Z,28.78
2022-08-11T11:25:23.775Z,28.67
2022-08-11T11:26:19.379Z,28.56
2022-08-11T11:27:15.730Z,28.68
2022-08-11T11:28:10.222Z,28.68
2022-08-11T11:29:05.674Z,28.91
2022-08-11T11:30:01.208Z,29.11
2022-08-11T11:30:56.533Z,29.11
2022-08-11T11:31:51.991Z,29.18
2022-08-11T11:32:49.716Z,29.25
2022-08-11T11:33:57.415Z,29.20
2022-08-11T11:34:52.768Z,29.27
2022-08-11T11:35:34.742Z,29.47
2022-08-11T11:36:28.992Z,29.26
2022-08-11T11:37:24.443Z,29.18
2022-08-11T11:38:19.890Z,29.28
2022-08-11T11:39:15.452Z,29.27
2022-08-11T11:40:10.758Z,29.29
2022-08-11T11:41:06.358Z,29.22
2022-08-11T11:42:01.560Z,29.04
2022-08-11T11:42:57.016Z,29.08
2022-08-11T11:43:52.475Z,29.14
2022-08-11T11:44:47.999Z,29.33
2022-08-11T11:45:43.580Z,29.43
2022-08-11T11:46:39.327Z,29.55
2022-08-11T11:47:34.535Z,29.44
2022-08-11T11:48:30.001Z,29.42
2022-08-11T11:49:25.557Z,29.39
2022-08-11T11:50:21.019Z,29.57
2022-08-11T11:51:16.609Z,29.74
2022-08-11T11:52:11.831Z,29.93
2022-08-11T11:53:07.287Z,29.90
2022-08-11T11:54:02.803Z,29.84
2022-08-11T11:54:58.276Z,29.93